sensor_id;sensor_type;location;lat;lon;timestamp;P1;durP1;ratioP1;P2;durP2;ratioP2
13108;SDS011;6620;53.734;11.510;2023-04-25T00:01:18;7.47;;;1.90;;
13108;SDS011;6620;53.734;11.510;2023-04-25T00:03:43;4.53;;;1.10;;
13108;SDS011;6620;53.734;11.510;2023-04-25T00:06:09;6.10;;;1.85;;
13108;SDS011;6620;53.734;11.510;2023-04-25T00:08:34;3.55;;;1.77;;
13108;SDS011;6620;53.734;11.510;2023-04-25T00:11:00;5.30;;;2.55;;
13108;SDS011;6620;53.734;11.510;2023-04-25T00:13:40;6.95;;;2.45;;
13108;SDS011;6620;53.734;11.510;2023-04-25T00:16:06;5.03;;;2.05;;
13108;SDS011;6620;53.734;11.510;2023-04-25T00:18:31;3.78;;;1.90;;
13108;SDS011;6620;53.734;11.510;2023-04-25T00:20:58;4.70;;;2.15;;
13108;SDS011;6620;53.734;11.510;2023-04-25T00:23:23;6.53;;;2.45;;
13108;SDS011;6620;53.734;11.510;2023-04-25T00:25:49;5.70;;;2.60;;
13108;SDS011;6620;53.734;11.510;2023-04-25T00:28:14;5.43;;;2.60;;
13108;SDS011;6620;53.734;11.510;2023-04-25T00:30:40;7.57;;;2.00;;
13108;SDS011;6620;53.734;11.510;2023-04-25T00:33:06;3.38;;;1.67;;
13108;SDS011;6620;53.734;11.510;2023-04-25T00:35:31;3.28;;;2.28;;
13108;SDS011;6620;53.734;11.510;2023-04-25T00:37:56;4.88;;;2.28;;
13108;SDS011;6620;53.734;11.510;2023-04-25T00:40:21;4.07;;;2.60;;
13108;SDS011;6620;53.734;11.510;2023-04-25T00:42:47;3.90;;;2.38;;
13108;SDS011;6620;53.734;11.510;2023-04-25T00:45:13;3.50;;;2.17;;
13108;SDS011;6620;53.734;11.510;2023-04-25T00:47:39;5.60;;;2.63;;
13108;SDS011;6620;53.734;11.510;2023-04-25T00:50:05;4.97;;;2.30;;
13108;SDS011;6620;53.734;11.510;2023-04-25T00:52:30;7.30;;;2.47;;
13108;SDS011;6620;53.734;11.510;2023-04-25T00:54:56;2.95;;;2.65;;
13108;SDS011;6620;53.734;11.510;2023-04-25T00:57:21;4.93;;;2.80;;
13108;SDS011;6620;53.734;11.510;2023-04-25T00:59:46;5.25;;;3.00;;
13108;SDS011;6620;53.734;11.510;2023-04-25T01:02:12;7.68;;;2.80;;
13108;SDS011;6620;53.734;11.510;2023-04-25T01:04:37;4.25;;;2.40;;
13108;SDS011;6620;53.734;11.510;2023-04-25T01:07:03;7.10;;;2.45;;
13108;SDS011;6620;53.734;11.510;2023-04-25T01:09:29;6.38;;;3.05;;
13108;SDS011;6620;53.734;11.510;2023-04-25T01:11:55;7.85;;;2.83;;
13108;SDS011;6620;53.734;11.510;2023-04-25T01:14:20;7.35;;;3.10;;
13108;SDS011;6620;53.734;11.510;2023-04-25T01:16:45;7.20;;;3.05;;
13108;SDS011;6620;53.734;11.510;2023-04-25T01:19:11;6.10;;;2.90;;
13108;SDS011;6620;53.734;11.510;2023-04-25T01:21:37;5.60;;;2.60;;
13108;SDS011;6620;53.734;11.510;2023-04-25T01:24:02;3.63;;;2.50;;
13108;SDS011;6620;53.734;11.510;2023-04-25T01:26:27;5.50;;;2.50;;
13108;SDS011;6620;53.734;11.510;2023-04-25T01:28:53;11.40;;;2.35;;
13108;SDS011;6620;53.734;11.510;2023-04-25T01:31:18;4.45;;;2.80;;
13108;SDS011;6620;53.734;11.510;2023-04-25T01:33:44;5.93;;;3.10;;
13108;SDS011;6620;53.734;11.510;2023-04-25T01:36:10;7.95;;;2.80;;
13108;SDS011;6620;53.734;11.510;2023-04-25T01:38:35;4.30;;;2.80;;
13108;SDS011;6620;53.734;11.510;2023-04-25T01:41:00;6.32;;;2.92;;
13108;SDS011;6620;53.734;11.510;2023-04-25T01:43:26;7.00;;;3.13;;
13108;SDS011;6620;53.734;11.510;2023-04-25T01:45:51;3.17;;;2.38;;
13108;SDS011;6620;53.734;11.510;2023-04-25T01:48:17;7.80;;;2.90;;
13108;SDS011;6620;53.734;11.510;2023-04-25T01:50:42;9.33;;;3.77;;
13108;SDS011;6620;53.734;11.510;2023-04-25T01:53:09;5.47;;;2.88;;
13108;SDS011;6620;53.734;11.510;2023-04-25T01:55:34;5.35;;;3.38;;
13108;SDS011;6620;53.734;11.510;2023-04-25T01:58:00;5.93;;;3.03;;
13108;SDS011;6620;53.734;11.510;2023-04-25T02:00:26;6.43;;;2.58;;
13108;SDS011;6620;53.734;11.510;2023-04-25T02:02:51;5.97;;;3.03;;
13108;SDS011;6620;53.734;11.510;2023-04-25T02:05:18;4.32;;;2.80;;
13108;SDS011;6620;53.734;11.510;2023-04-25T02:07:43;7.07;;;2.97;;
13108;SDS011;6620;53.734;11.510;2023-04-25T02:10:09;4.47;;;3.05;;
13108;SDS011;6620;53.734;11.510;2023-04-25T02:12:35;4.47;;;2.88;;
13108;SDS011;6620;53.734;11.510;2023-04-25T02:15:00;5.03;;;3.08;;
13108;SDS011;6620;53.734;11.510;2023-04-25T02:17:25;6.43;;;3.95;;
13108;SDS011;6620;53.734;11.510;2023-04-25T02:19:51;6.55;;;3.30;;
13108;SDS011;6620;53.734;11.510;2023-04-25T02:22:16;7.22;;;2.88;;
13108;SDS011;6620;53.734;11.510;2023-04-25T02:24:41;5.67;;;2.90;;
13108;SDS011;6620;53.734;11.510;2023-04-25T02:27:06;4.00;;;2.33;;
13108;SDS011;6620;53.734;11.510;2023-04-25T02:29:32;5.72;;;2.95;;
13108;SDS011;6620;53.734;11.510;2023-04-25T02:31:58;6.90;;;3.50;;
13108;SDS011;6620;53.734;11.510;2023-04-25T02:34:23;5.97;;;3.08;;
13108;SDS011;6620;53.734;11.510;2023-04-25T02:36:48;10.27;;;4.23;;
13108;SDS011;6620;53.734;11.510;2023-04-25T02:39:13;5.55;;;3.25;;
13108;SDS011;6620;53.734;11.510;2023-04-25T02:41:39;5.15;;;2.70;;
13108;SDS011;6620;53.734;11.510;2023-04-25T02:44:04;9.52;;;3.33;;
13108;SDS011;6620;53.734;11.510;2023-04-25T02:46:29;4.40;;;3.13;;
13108;SDS011;6620;53.734;11.510;2023-04-25T02:48:54;12.70;;;4.60;;
13108;SDS011;6620;53.734;11.510;2023-04-25T02:51:20;10.63;;;4.17;;
13108;SDS011;6620;53.734;11.510;2023-04-25T02:53:45;7.70;;;3.10;;
13108;SDS011;6620;53.734;11.510;2023-04-25T02:56:10;8.43;;;3.60;;
13108;SDS011;6620;53.734;11.510;2023-04-25T02:58:35;7.50;;;3.05;;
13108;SDS011;6620;53.734;11.510;2023-04-25T03:01:00;10.73;;;3.20;;
13108;SDS011;6620;53.734;11.510;2023-04-25T03:03:26;12.15;;;4.32;;
13108;SDS011;6620;53.734;11.510;2023-04-25T03:05:51;7.10;;;2.70;;
13108;SDS011;6620;53.734;11.510;2023-04-25T03:08:17;8.60;;;3.10;;
13108;SDS011;6620;53.734;11.510;2023-04-25T03:10:42;11.85;;;3.17;;
13108;SDS011;6620;53.734;11.510;2023-04-25T03:13:08;11.30;;;3.03;;
13108;SDS011;6620;53.734;11.510;2023-04-25T03:15:33;9.68;;;2.90;;
13108;SDS011;6620;53.734;11.510;2023-04-25T03:17:58;14.73;;;3.10;;
13108;SDS011;6620;53.734;11.510;2023-04-25T03:20:24;10.77;;;2.80;;
13108;SDS011;6620;53.734;11.510;2023-04-25T03:22:49;13.90;;;3.15;;
13108;SDS011;6620;53.734;11.510;2023-04-25T03:25:15;12.45;;;2.45;;
13108;SDS011;6620;53.734;11.510;2023-04-25T03:27:40;12.98;;;2.60;;
13108;SDS011;6620;53.734;11.510;2023-04-25T03:30:05;13.00;;;2.40;;
13108;SDS011;6620;53.734;11.510;2023-04-25T03:32:31;15.10;;;2.55;;
13108;SDS011;6620;53.734;11.510;2023-04-25T03:34:56;6.05;;;1.60;;
13108;SDS011;6620;53.734;11.510;2023-04-25T03:37:22;21.92;;;2.78;;
13108;SDS011;6620;53.734;11.510;2023-04-25T03:39:47;12.90;;;2.50;;
13108;SDS011;6620;53.734;11.510;2023-04-25T03:42:12;11.63;;;2.50;;
13108;SDS011;6620;53.734;11.510;2023-04-25T03:44:37;16.67;;;1.73;;
13108;SDS011;6620;53.734;11.510;2023-04-25T03:47:03;18.37;;;2.27;;
13108;SDS011;6620;53.734;11.510;2023-04-25T03:49:28;14.52;;;2.65;;
13108;SDS011;6620;53.734;11.510;2023-04-25T03:51:53;15.30;;;2.97;;
13108;SDS011;6620;53.734;11.510;2023-04-25T03:54:18;7.20;;;2.03;;
13108;SDS011;6620;53.734;11.510;2023-04-25T03:56:43;21.85;;;3.72;;
13108;SDS011;6620;53.734;11.510;2023-04-25T03:59:09;20.37;;;2.90;;
13108;SDS011;6620;53.734;11.510;2023-04-25T04:01:34;13.75;;;2.53;;
13108;SDS011;6620;53.734;11.510;2023-04-25T04:04:00;15.20;;;2.78;;
13108;SDS011;6620;53.734;11.510;2023-04-25T04:06:25;15.02;;;2.97;;
13108;SDS011;6620;53.734;11.510;2023-04-25T04:08:50;15.45;;;2.50;;
13108;SDS011;6620;53.734;11.510;2023-04-25T04:11:15;13.37;;;2.53;;
13108;SDS011;6620;53.734;11.510;2023-04-25T04:13:41;18.27;;;2.70;;
13108;SDS011;6620;53.734;11.510;2023-04-25T04:16:06;11.80;;;2.67;;
13108;SDS011;6620;53.734;11.510;2023-04-25T04:18:31;16.90;;;2.88;;
13108;SDS011;6620;53.734;11.510;2023-04-25T04:20:58;15.45;;;2.65;;
13108;SDS011;6620;53.734;11.510;2023-04-25T04:23:23;14.25;;;2.58;;
13108;SDS011;6620;53.734;11.510;2023-04-25T04:25:48;13.23;;;2.30;;
13108;SDS011;6620;53.734;11.510;2023-04-25T04:28:13;14.23;;;2.47;;
13108;SDS011;6620;53.734;11.510;2023-04-25T04:30:39;18.23;;;3.77;;
13108;SDS011;6620;53.734;11.510;2023-04-25T04:33:05;6.22;;;1.38;;
13108;SDS011;6620;53.734;11.510;2023-04-25T04:35:32;14.10;;;2.97;;
13108;SDS011;6620;53.734;11.510;2023-04-25T04:37:57;14.20;;;2.53;;
13108;SDS011;6620;53.734;11.510;2023-04-25T04:40:22;15.82;;;2.72;;
13108;SDS011;6620;53.734;11.510;2023-04-25T04:42:47;18.83;;;3.10;;
13108;SDS011;6620;53.734;11.510;2023-04-25T04:45:16;19.35;;;4.57;;
13108;SDS011;6620;53.734;11.510;2023-04-25T04:47:41;12.55;;;2.30;;
13108;SDS011;6620;53.734;11.510;2023-04-25T04:50:08;14.90;;;2.80;;
13108;SDS011;6620;53.734;11.510;2023-04-25T04:52:34;19.35;;;3.10;;
13108;SDS011;6620;53.734;11.510;2023-04-25T04:55:00;16.73;;;3.70;;
13108;SDS011;6620;53.734;11.510;2023-04-25T04:57:25;16.63;;;3.05;;
13108;SDS011;6620;53.734;11.510;2023-04-25T04:59:51;18.17;;;3.10;;
13108;SDS011;6620;53.734;11.510;2023-04-25T05:02:16;17.43;;;3.97;;
13108;SDS011;6620;53.734;11.510;2023-04-25T05:04:41;13.80;;;2.13;;
13108;SDS011;6620;53.734;11.510;2023-04-25T05:07:07;10.68;;;2.40;;
13108;SDS011;6620;53.734;11.510;2023-04-25T05:09:32;16.30;;;2.80;;
13108;SDS011;6620;53.734;11.510;2023-04-25T05:11:57;15.88;;;2.50;;
13108;SDS011;6620;53.734;11.510;2023-04-25T05:14:22;22.17;;;2.60;;
13108;SDS011;6620;53.734;11.510;2023-04-25T05:16:48;18.63;;;2.75;;
13108;SDS011;6620;53.734;11.510;2023-04-25T05:19:13;20.85;;;2.88;;
13108;SDS011;6620;53.734;11.510;2023-04-25T05:21:38;13.70;;;2.37;;
13108;SDS011;6620;53.734;11.510;2023-04-25T05:24:03;15.87;;;2.70;;
13108;SDS011;6620;53.734;11.510;2023-04-25T05:26:29;19.92;;;3.03;;
13108;SDS011;6620;53.734;11.510;2023-04-25T05:28:56;14.20;;;2.22;;
13108;SDS011;6620;53.734;11.510;2023-04-25T05:31:21;17.73;;;3.03;;
13108;SDS011;6620;53.734;11.510;2023-04-25T05:33:46;17.77;;;2.73;;
13108;SDS011;6620;53.734;11.510;2023-04-25T05:36:12;11.13;;;2.20;;
13108;SDS011;6620;53.734;11.510;2023-04-25T05:38:37;18.73;;;3.13;;
13108;SDS011;6620;53.734;11.510;2023-04-25T05:41:02;12.13;;;2.30;;
13108;SDS011;6620;53.734;11.510;2023-04-25T05:43:27;19.70;;;2.10;;
13108;SDS011;6620;53.734;11.510;2023-04-25T05:45:52;14.67;;;1.93;;
13108;SDS011;6620;53.734;11.510;2023-04-25T05:48:18;14.65;;;2.20;;
13108;SDS011;6620;53.734;11.510;2023-04-25T05:50:43;16.87;;;3.17;;
13108;SDS011;6620;53.734;11.510;2023-04-25T05:53:08;16.00;;;3.57;;
13108;SDS011;6620;53.734;11.510;2023-04-25T05:55:34;10.32;;;3.10;;
13108;SDS011;6620;53.734;11.510;2023-04-25T05:57:59;13.10;;;2.70;;
13108;SDS011;6620;53.734;11.510;2023-04-25T06:00:25;24.20;;;3.63;;
13108;SDS011;6620;53.734;11.510;2023-04-25T06:02:50;14.93;;;3.03;;
13108;SDS011;6620;53.734;11.510;2023-04-25T06:05:15;19.95;;;2.92;;
13108;SDS011;6620;53.734;11.510;2023-04-25T06:07:41;15.40;;;2.95;;
13108;SDS011;6620;53.734;11.510;2023-04-25T06:10:06;18.33;;;2.83;;
13108;SDS011;6620;53.734;11.510;2023-04-25T06:12:32;10.20;;;2.88;;
13108;SDS011;6620;53.734;11.510;2023-04-25T06:14:58;16.50;;;2.25;;
13108;SDS011;6620;53.734;11.510;2023-04-25T06:17:23;18.40;;;2.88;;
13108;SDS011;6620;53.734;11.510;2023-04-25T06:19:48;15.50;;;2.47;;
13108;SDS011;6620;53.734;11.510;2023-04-25T06:22:13;16.50;;;2.10;;
13108;SDS011;6620;53.734;11.510;2023-04-25T06:24:39;9.30;;;1.73;;
13108;SDS011;6620;53.734;11.510;2023-04-25T06:27:04;13.23;;;2.45;;
13108;SDS011;6620;53.734;11.510;2023-04-25T06:29:30;19.67;;;3.13;;
13108;SDS011;6620;53.734;11.510;2023-04-25T06:31:55;12.10;;;2.88;;
13108;SDS011;6620;53.734;11.510;2023-04-25T06:34:20;17.52;;;2.60;;
13108;SDS011;6620;53.734;11.510;2023-04-25T06:36:45;14.57;;;3.17;;
13108;SDS011;6620;53.734;11.510;2023-04-25T06:39:10;11.83;;;2.07;;
13108;SDS011;6620;53.734;11.510;2023-04-25T06:41:36;21.20;;;2.95;;
13108;SDS011;6620;53.734;11.510;2023-04-25T06:44:01;14.73;;;3.10;;
13108;SDS011;6620;53.734;11.510;2023-04-25T06:46:26;10.07;;;2.28;;
13108;SDS011;6620;53.734;11.510;2023-04-25T06:48:52;16.00;;;2.67;;
13108;SDS011;6620;53.734;11.510;2023-04-25T06:51:17;12.07;;;2.75;;
13108;SDS011;6620;53.734;11.510;2023-04-25T06:53:42;13.27;;;2.60;;
13108;SDS011;6620;53.734;11.510;2023-04-25T06:56:07;16.58;;;2.95;;
13108;SDS011;6620;53.734;11.510;2023-04-25T06:58:33;12.40;;;1.88;;
13108;SDS011;6620;53.734;11.510;2023-04-25T07:00:58;8.83;;;1.63;;
13108;SDS011;6620;53.734;11.510;2023-04-25T07:03:23;11.55;;;2.58;;
13108;SDS011;6620;53.734;11.510;2023-04-25T07:05:49;15.18;;;2.17;;
13108;SDS011;6620;53.734;11.510;2023-04-25T07:08:14;14.75;;;1.98;;
13108;SDS011;6620;53.734;11.510;2023-04-25T07:10:39;13.27;;;2.25;;
13108;SDS011;6620;53.734;11.510;2023-04-25T07:13:05;14.80;;;1.80;;
13108;SDS011;6620;53.734;11.510;2023-04-25T07:15:30;12.38;;;2.45;;
13108;SDS011;6620;53.734;11.510;2023-04-25T07:17:55;8.53;;;1.73;;
13108;SDS011;6620;53.734;11.510;2023-04-25T07:20:20;9.02;;;1.75;;
13108;SDS011;6620;53.734;11.510;2023-04-25T07:22:45;16.23;;;2.60;;
13108;SDS011;6620;53.734;11.510;2023-04-25T07:25:11;9.05;;;2.00;;
13108;SDS011;6620;53.734;11.510;2023-04-25T07:27:36;16.33;;;2.37;;
13108;SDS011;6620;53.734;11.510;2023-04-25T07:30:01;12.55;;;2.17;;
13108;SDS011;6620;53.734;11.510;2023-04-25T07:32:27;10.70;;;1.60;;
13108;SDS011;6620;53.734;11.510;2023-04-25T07:34:52;14.10;;;2.38;;
13108;SDS011;6620;53.734;11.510;2023-04-25T07:37:17;11.52;;;1.42;;
13108;SDS011;6620;53.734;11.510;2023-04-25T07:39:43;14.18;;;1.83;;
13108;SDS011;6620;53.734;11.510;2023-04-25T07:42:10;16.50;;;2.00;;
13108;SDS011;6620;53.734;11.510;2023-04-25T07:44:36;11.38;;;1.95;;
13108;SDS011;6620;53.734;11.510;2023-04-25T07:47:08;18.17;;;2.75;;
13108;SDS011;6620;53.734;11.510;2023-04-25T07:49:34;8.05;;;2.13;;
13108;SDS011;6620;53.734;11.510;2023-04-25T07:52:02;13.57;;;1.73;;
13108;SDS011;6620;53.734;11.510;2023-04-25T07:54:28;15.05;;;2.58;;
13108;SDS011;6620;53.734;11.510;2023-04-25T07:56:53;15.32;;;1.77;;
13108;SDS011;6620;53.734;11.510;2023-04-25T07:59:18;9.48;;;1.83;;
13108;SDS011;6620;53.734;11.510;2023-04-25T08:01:44;11.32;;;2.05;;
13108;SDS011;6620;53.734;11.510;2023-04-25T08:04:09;10.95;;;1.60;;
13108;SDS011;6620;53.734;11.510;2023-04-25T08:06:34;10.40;;;2.75;;
13108;SDS011;6620;53.734;11.510;2023-04-25T08:09:00;9.38;;;1.70;;
13108;SDS011;6620;53.734;11.510;2023-04-25T08:11:25;13.25;;;2.35;;
13108;SDS011;6620;53.734;11.510;2023-04-25T08:13:50;9.13;;;2.03;;
13108;SDS011;6620;53.734;11.510;2023-04-25T08:16:16;11.50;;;1.87;;
13108;SDS011;6620;53.734;11.510;2023-04-25T08:18:41;9.53;;;1.80;;
13108;SDS011;6620;53.734;11.510;2023-04-25T08:21:06;12.40;;;2.20;;
13108;SDS011;6620;53.734;11.510;2023-04-25T08:23:33;9.10;;;2.00;;
13108;SDS011;6620;53.734;11.510;2023-04-25T08:25:58;10.80;;;1.93;;
13108;SDS011;6620;53.734;11.510;2023-04-25T08:28:24;6.28;;;1.33;;
13108;SDS011;6620;53.734;11.510;2023-04-25T08:30:49;8.85;;;1.58;;
13108;SDS011;6620;53.734;11.510;2023-04-25T08:33:14;12.25;;;2.85;;
13108;SDS011;6620;53.734;11.510;2023-04-25T08:35:40;15.02;;;3.22;;
13108;SDS011;6620;53.734;11.510;2023-04-25T08:38:05;10.07;;;1.77;;
13108;SDS011;6620;53.734;11.510;2023-04-25T08:40:30;13.85;;;1.88;;
13108;SDS011;6620;53.734;11.510;2023-04-25T08:42:59;9.07;;;1.45;;
13108;SDS011;6620;53.734;11.510;2023-04-25T08:45:26;11.23;;;2.25;;
13108;SDS011;6620;53.734;11.510;2023-04-25T08:47:53;8.30;;;1.55;;
13108;SDS011;6620;53.734;11.510;2023-04-25T08:50:18;12.75;;;1.90;;
13108;SDS011;6620;53.734;11.510;2023-04-25T08:52:47;6.22;;;1.08;;
13108;SDS011;6620;53.734;11.510;2023-04-25T08:55:13;8.60;;;1.27;;
13108;SDS011;6620;53.734;11.510;2023-04-25T08:57:39;6.78;;;1.48;;
13108;SDS011;6620;53.734;11.510;2023-04-25T09:00:07;5.25;;;1.17;;
13108;SDS011;6620;53.734;11.510;2023-04-25T09:02:33;9.85;;;1.63;;
13108;SDS011;6620;53.734;11.510;2023-04-25T09:04:58;14.07;;;2.17;;
13108;SDS011;6620;53.734;11.510;2023-04-25T09:07:24;6.38;;;1.25;;
13108;SDS011;6620;53.734;11.510;2023-04-25T09:09:50;8.23;;;1.50;;
13108;SDS011;6620;53.734;11.510;2023-04-25T09:12:17;9.70;;;2.30;;
13108;SDS011;6620;53.734;11.510;2023-04-25T09:14:42;7.90;;;1.50;;
13108;SDS011;6620;53.734;11.510;2023-04-25T09:17:25;9.05;;;1.50;;
13108;SDS011;6620;53.734;11.510;2023-04-25T09:19:50;10.10;;;2.00;;
13108;SDS011;6620;53.734;11.510;2023-04-25T09:22:16;12.85;;;1.55;;
13108;SDS011;6620;53.734;11.510;2023-04-25T09:24:43;13.18;;;2.28;;
13108;SDS011;6620;53.734;11.510;2023-04-25T09:27:11;8.48;;;1.95;;
13108;SDS011;6620;53.734;11.510;2023-04-25T09:29:38;12.18;;;1.65;;
13108;SDS011;6620;53.734;11.510;2023-04-25T09:34:39;15.45;;;2.00;;
13108;SDS011;6620;53.734;11.510;2023-04-25T09:37:05;8.27;;;1.70;;
13108;SDS011;6620;53.734;11.510;2023-04-25T09:39:32;7.57;;;1.20;;
13108;SDS011;6620;53.734;11.510;2023-04-25T09:41:57;11.68;;;1.60;;
13108;SDS011;6620;53.734;11.510;2023-04-25T09:44:24;12.85;;;1.80;;
13108;SDS011;6620;53.734;11.510;2023-04-25T09:46:49;8.13;;;1.27;;
13108;SDS011;6620;53.734;11.510;2023-04-25T09:49:19;8.32;;;1.20;;
13108;SDS011;6620;53.734;11.510;2023-04-25T09:51:53;11.85;;;2.50;;
13108;SDS011;6620;53.734;11.510;2023-04-25T09:54:18;7.70;;;1.42;;
13108;SDS011;6620;53.734;11.510;2023-04-25T09:56:43;6.50;;;1.52;;
13108;SDS011;6620;53.734;11.510;2023-04-25T09:59:12;12.38;;;2.28;;
13108;SDS011;6620;53.734;11.510;2023-04-25T10:01:38;9.52;;;1.52;;
13108;SDS011;6620;53.734;11.510;2023-04-25T10:04:04;10.80;;;1.52;;
13108;SDS011;6620;53.734;11.510;2023-04-25T10:06:31;5.53;;;0.90;;
13108;SDS011;6620;53.734;11.510;2023-04-25T10:08:58;4.00;;;0.77;;
13108;SDS011;6620;53.734;11.510;2023-04-25T10:11:24;7.50;;;1.70;;
13108;SDS011;6620;53.734;11.510;2023-04-25T10:13:51;8.10;;;1.20;;
13108;SDS011;6620;53.734;11.510;2023-04-25T10:16:16;6.50;;;1.30;;
13108;SDS011;6620;53.734;11.510;2023-04-25T10:18:42;5.68;;;1.63;;
13108;SDS011;6620;53.734;11.510;2023-04-25T10:21:07;5.37;;;1.30;;
13108;SDS011;6620;53.734;11.510;2023-04-25T10:23:32;3.47;;;1.35;;
13108;SDS011;6620;53.734;11.510;2023-04-25T10:25:59;7.22;;;0.68;;
13108;SDS011;6620;53.734;11.510;2023-04-25T10:28:25;9.00;;;1.73;;
13108;SDS011;6620;53.734;11.510;2023-04-25T10:30:56;8.27;;;1.50;;
13108;SDS011;6620;53.734;11.510;2023-04-25T10:33:28;2.67;;;0.55;;
13108;SDS011;6620;53.734;11.510;2023-04-25T10:38:19;12.27;;;1.70;;
13108;SDS011;6620;53.734;11.510;2023-04-25T10:41:06;13.05;;;1.50;;
13108;SDS011;6620;53.734;11.510;2023-04-25T10:43:43;10.27;;;1.58;;
13108;SDS011;6620;53.734;11.510;2023-04-25T10:48:43;7.65;;;1.10;;
13108;SDS011;6620;53.734;11.510;2023-04-25T10:51:31;11.15;;;1.05;;
13108;SDS011;6620;53.734;11.510;2023-04-25T10:56:37;7.70;;;0.90;;
13108;SDS011;6620;53.734;11.510;2023-04-25T10:59:10;8.40;;;1.50;;
13108;SDS011;6620;53.734;11.510;2023-04-25T11:01:51;3.85;;;1.15;;
13108;SDS011;6620;53.734;11.510;2023-04-25T11:04:33;12.02;;;1.85;;
13108;SDS011;6620;53.734;11.510;2023-04-25T11:09:29;8.65;;;1.65;;
13108;SDS011;6620;53.734;11.510;2023-04-25T11:11:55;14.45;;;1.70;;
13108;SDS011;6620;53.734;11.510;2023-04-25T11:14:20;7.38;;;1.33;;
13108;SDS011;6620;53.734;11.510;2023-04-25T11:16:46;7.65;;;1.45;;
13108;SDS011;6620;53.734;11.510;2023-04-25T11:19:12;9.13;;;1.17;;
13108;SDS011;6620;53.734;11.510;2023-04-25T11:21:37;7.57;;;1.10;;
13108;SDS011;6620;53.734;11.510;2023-04-25T11:24:02;4.97;;;1.20;;
13108;SDS011;6620;53.734;11.510;2023-04-25T11:26:27;9.55;;;1.42;;
13108;SDS011;6620;53.734;11.510;2023-04-25T11:28:56;5.90;;;1.15;;
13108;SDS011;6620;53.734;11.510;2023-04-25T11:31:21;9.55;;;1.73;;
13108;SDS011;6620;53.734;11.510;2023-04-25T11:33:47;10.52;;;1.77;;
13108;SDS011;6620;53.734;11.510;2023-04-25T11:36:12;10.37;;;1.13;;
13108;SDS011;6620;53.734;11.510;2023-04-25T11:38:37;7.13;;;1.48;;
13108;SDS011;6620;53.734;11.510;2023-04-25T11:41:02;10.63;;;1.33;;
13108;SDS011;6620;53.734;11.510;2023-04-25T11:43:28;4.87;;;1.03;;
13108;SDS011;6620;53.734;11.510;2023-04-25T11:45:53;8.38;;;1.80;;
13108;SDS011;6620;53.734;11.510;2023-04-25T11:48:18;7.03;;;1.80;;
13108;SDS011;6620;53.734;11.510;2023-04-25T11:50:44;6.68;;;1.55;;
13108;SDS011;6620;53.734;11.510;2023-04-25T11:53:09;6.18;;;1.08;;
13108;SDS011;6620;53.734;11.510;2023-04-25T11:55:35;6.15;;;1.63;;
13108;SDS011;6620;53.734;11.510;2023-04-25T11:58:01;6.38;;;0.70;;
13108;SDS011;6620;53.734;11.510;2023-04-25T12:00:27;11.55;;;1.20;;
13108;SDS011;6620;53.734;11.510;2023-04-25T12:02:53;9.35;;;1.27;;
13108;SDS011;6620;53.734;11.510;2023-04-25T12:05:19;10.20;;;2.42;;
13108;SDS011;6620;53.734;11.510;2023-04-25T12:07:45;7.55;;;1.10;;
13108;SDS011;6620;53.734;11.510;2023-04-25T12:10:11;9.90;;;1.63;;
13108;SDS011;6620;53.734;11.510;2023-04-25T12:12:37;6.60;;;1.92;;
13108;SDS011;6620;53.734;11.510;2023-04-25T12:15:15;7.15;;;0.93;;
13108;SDS011;6620;53.734;11.510;2023-04-25T12:17:42;5.40;;;1.00;;
13108;SDS011;6620;53.734;11.510;2023-04-25T12:20:10;6.90;;;0.80;;
13108;SDS011;6620;53.734;11.510;2023-04-25T12:22:35;6.07;;;1.27;;
13108;SDS011;6620;53.734;11.510;2023-04-25T12:25:01;4.43;;;1.73;;
13108;SDS011;6620;53.734;11.510;2023-04-25T12:27:30;2.42;;;0.73;;
13108;SDS011;6620;53.734;11.510;2023-04-25T12:29:56;5.88;;;0.60;;
13108;SDS011;6620;53.734;11.510;2023-04-25T12:32:21;5.70;;;0.90;;
13108;SDS011;6620;53.734;11.510;2023-04-25T12:34:46;16.13;;;1.13;;
13108;SDS011;6620;53.734;11.510;2023-04-25T12:37:12;4.27;;;0.40;;
13108;SDS011;6620;53.734;11.510;2023-04-25T12:39:37;6.07;;;0.60;;
13108;SDS011;6620;53.734;11.510;2023-04-25T12:42:02;5.57;;;0.90;;
13108;SDS011;6620;53.734;11.510;2023-04-25T12:44:28;4.35;;;0.90;;
13108;SDS011;6620;53.734;11.510;2023-04-25T12:46:53;7.22;;;1.10;;
13108;SDS011;6620;53.734;11.510;2023-04-25T12:49:19;3.63;;;0.80;;
13108;SDS011;6620;53.734;11.510;2023-04-25T12:51:45;2.83;;;0.60;;
13108;SDS011;6620;53.734;11.510;2023-04-25T12:54:10;4.78;;;1.15;;
13108;SDS011;6620;53.734;11.510;2023-04-25T12:56:35;3.47;;;0.47;;
13108;SDS011;6620;53.734;11.510;2023-04-25T12:59:01;5.43;;;0.70;;
13108;SDS011;6620;53.734;11.510;2023-04-25T13:01:27;2.03;;;0.32;;
13108;SDS011;6620;53.734;11.510;2023-04-25T13:03:53;6.13;;;0.63;;
13108;SDS011;6620;53.734;11.510;2023-04-25T13:06:18;7.00;;;0.67;;
13108;SDS011;6620;53.734;11.510;2023-04-25T13:08:44;2.50;;;0.82;;
13108;SDS011;6620;53.734;11.510;2023-04-25T13:11:09;4.68;;;0.52;;
13108;SDS011;6620;53.734;11.510;2023-04-25T13:13:35;7.40;;;1.10;;
13108;SDS011;6620;53.734;11.510;2023-04-25T13:16:01;3.45;;;0.65;;
13108;SDS011;6620;53.734;11.510;2023-04-25T13:18:30;6.45;;;0.55;;
13108;SDS011;6620;53.734;11.510;2023-04-25T13:20:55;4.18;;;0.75;;
13108;SDS011;6620;53.734;11.510;2023-04-25T13:23:21;6.63;;;0.98;;
13108;SDS011;6620;53.734;11.510;2023-04-25T13:25:46;5.68;;;0.82;;
13108;SDS011;6620;53.734;11.510;2023-04-25T13:28:12;5.55;;;1.30;;
13108;SDS011;6620;53.734;11.510;2023-04-25T13:30:37;3.80;;;0.55;;
13108;SDS011;6620;53.734;11.510;2023-04-25T13:33:03;2.47;;;0.40;;
13108;SDS011;6620;53.734;11.510;2023-04-25T13:35:28;5.97;;;0.50;;
13108;SDS011;6620;53.734;11.510;2023-04-25T13:37:54;2.00;;;0.50;;
13108;SDS011;6620;53.734;11.510;2023-04-25T13:40:19;2.37;;;0.70;;
13108;SDS011;6620;53.734;11.510;2023-04-25T13:42:45;6.28;;;0.50;;
13108;SDS011;6620;53.734;11.510;2023-04-25T13:45:10;2.88;;;0.40;;
13108;SDS011;6620;53.734;11.510;2023-04-25T13:47:35;6.28;;;0.85;;
13108;SDS011;6620;53.734;11.510;2023-04-25T13:50:01;3.63;;;0.50;;
13108;SDS011;6620;53.734;11.510;2023-04-25T13:52:28;2.85;;;0.52;;
13108;SDS011;6620;53.734;11.510;2023-04-25T13:54:53;5.15;;;0.70;;
13108;SDS011;6620;53.734;11.510;2023-04-25T13:57:18;3.93;;;0.50;;
13108;SDS011;6620;53.734;11.510;2023-04-25T13:59:44;1.85;;;0.30;;
13108;SDS011;6620;53.734;11.510;2023-04-25T14:02:09;5.50;;;0.90;;
13108;SDS011;6620;53.734;11.510;2023-04-25T14:04:34;7.25;;;0.65;;
13108;SDS011;6620;53.734;11.510;2023-04-25T14:06:59;4.97;;;1.02;;
13108;SDS011;6620;53.734;11.510;2023-04-25T14:09:25;4.07;;;0.50;;
13108;SDS011;6620;53.734;11.510;2023-04-25T14:11:52;3.88;;;0.43;;
13108;SDS011;6620;53.734;11.510;2023-04-25T14:14:17;5.97;;;0.47;;
13108;SDS011;6620;53.734;11.510;2023-04-25T14:16:43;4.05;;;0.95;;
13108;SDS011;6620;53.734;11.510;2023-04-25T14:19:08;3.85;;;0.40;;
13108;SDS011;6620;53.734;11.510;2023-04-25T14:21:33;3.90;;;0.60;;
13108;SDS011;6620;53.734;11.510;2023-04-25T14:23:58;3.70;;;0.20;;
13108;SDS011;6620;53.734;11.510;2023-04-25T14:26:24;2.57;;;0.50;;
13108;SDS011;6620;53.734;11.510;2023-04-25T14:28:49;0.60;;;0.20;;
13108;SDS011;6620;53.734;11.510;2023-04-25T14:31:15;2.08;;;0.38;;
13108;SDS011;6620;53.734;11.510;2023-04-25T14:33:41;0.73;;;0.20;;
13108;SDS011;6620;53.734;11.510;2023-04-25T14:36:07;3.38;;;0.30;;
13108;SDS011;6620;53.734;11.510;2023-04-25T14:38:32;1.27;;;0.50;;
13108;SDS011;6620;53.734;11.510;2023-04-25T14:40:58;1.67;;;0.47;;
13108;SDS011;6620;53.734;11.510;2023-04-25T14:43:24;2.20;;;0.50;;
13108;SDS011;6620;53.734;11.510;2023-04-25T14:45:51;2.15;;;0.40;;
13108;SDS011;6620;53.734;11.510;2023-04-25T14:48:19;2.78;;;0.50;;